Impacts TAF Board
For situational awareness. Not to be used for flight planning purposes.
IDs:

KBRO - Brownsville Intl, TX, US

Issued at 1120 UTC 23 Sep 2020
Updated at 1613 UTC 23 Sep 2020
Potential Impact None Slight Moderate High
Time1553Z 23/17Z 23/18Z 23/19Z 23/20Z 23/21Z 23/22Z 23/23Z 24/00Z 24/01Z 24/02Z 24/03Z 24/04Z 24/05Z>>
Type OBS PRVL PRVL PRVL PRVL PRVL PRVL PRVL PRVL PRVL PRVL PRVL PRVL PRVL
VIS 10 >6 >6 >6 >6 >6 >6 >6 >6 >6 >6 >6 >6 >6
CIG -- -- -- -- -- -- -- -- -- -- -- -- -- --
Cover CLR SCT SCT SCT SCT SCT SCT SCT SKC SKC SKC SKC SKC SKC
FltCat VFR VFR VFR VFR VFR VFR VFR VFR VFR VFR VFR VFR VFR VFR
WX -- -- -- -- -- -- -- -- -- -- -- -- -- --
WDir 350 10 10 10 10 10 10 10 70 70 70 70 70 70
WSpd 7 10 10 10 10 10 10 10 5 5 5 5 5 5
WGst -- -- -- -- -- -- -- -- -- -- -- -- -- --
R13/31
XWnd 4 8 8 8 8 8 8 8 5 5 5 5 5 5
HWnd -6 -6 -6 -6 -6 -6 -6 -6 2 2 2 2 2 2
R17/35
XWnd -1 1 1 1 1 1 1 1 5 5 5 5 5 5
HWnd -7 -10 -10 -10 -10 -10 -10 -10 -2 -2 -2 -2 -2 -2
Raw TAF
KBRO 231120Z 2312/2412 31006KT P6SM FEW050
  FM231700 01010KT P6SM SCT050
  FM240000 07005KT P6SM SKC


Raw METAR
KBRO 231553Z 35007KT 10SM CLR 29/22 A2992 RMK AO2 SLP130 T02890222
KBRO 231453Z 01007KT 10SM CLR 27/22 A2991 RMK AO2 SLP127 T02720217 51009
KBRO 231353Z 35007KT 10SM CLR 26/21 A2991 RMK AO2 SLP126 T02560211

METAR Board
Radar Display
Forecast Discussion
For situational awareness. Not to be used for flight planning purposes.